^^
Your Local Weather - Clay, NY Station Historical Data
Daily Summary for February 8, 2017 Units:  Metric    English   Both
« Previous Day
Next Day »
Daily Weekly Monthly Yearly Custom
  High: Low: Average:
Temperature: 11.3 °C -3.1 °C 2.9 °C
Dew Point: 8 °C -8.4 °C -1.2 °C
Humidity: 89% 64% 74%
Wind Speed: 12.9km/h 1.6km/h 6.6km/h
Wind Gust: 24.1km/h - -
Wind- - West
Pressure: 1010.4 hPa 991.8 hPa -
Precipitation: 0.25 mm    
Historical Graphs
 
 
Tabular Data for February 8, 2017
Time Temperature Dew Point Pressure Wind Wind Speed Wind Gust Humidity Rainfall Rate (Hourly) solar
00:00 7.9 °C 5.9 °C 992.8 hPa SSW 6.4 km/h 6.4 km/h 87% 0 mm 0 W/m2
00:06 7.9 °C 5.9 °C 992.8 hPa SSW 4.8 km/h 9.7 km/h 87% 0 mm 0 W/m2
00:12 8.1 °C 6 °C 992.8 hPa South 4.8 km/h 6.4 km/h 87% 0 mm 0 W/m2
00:18 8.3 °C 6.4 °C 992.4 hPa SSE 6.4 km/h 9.7 km/h 88% 0 mm 0 W/m2
00:24 8.5 °C 6.4 °C 992.8 hPa SW 6.4 km/h 11.3 km/h 87% 0 mm 0 W/m2
00:30 8.6 °C 6.7 °C 992.8 hPa South 6.4 km/h 8 km/h 88% 0 mm 0 W/m2
00:36 8.8 °C 6.7 °C 992.4 hPa South 6.4 km/h 14.5 km/h 87% 0 mm 0 W/m2
00:42 8.9 °C 6.7 °C 992.1 hPa SSE 8 km/h 14.5 km/h 86% 0 mm 0 W/m2
00:48 9 °C 6.8 °C 992.1 hPa SW 8 km/h 14.5 km/h 86% 0 mm 0 W/m2
00:54 9.1 °C 6.7 °C 992.1 hPa South 9.7 km/h 11.3 km/h 85% 0 mm 0 W/m2
01:00 9.2 °C 6.9 °C 992.1 hPa South 9.7 km/h 9.7 km/h 86% 0 mm 0 W/m2
01:06 9.2 °C 7 °C 991.8 hPa South 8 km/h 9.7 km/h 86% 0 mm 0 W/m2
01:12 9.1 °C 6.9 °C 992.1 hPa SSE 8 km/h 8 km/h 86% 0 mm 0 W/m2
01:18 9.2 °C 6.9 °C 992.1 hPa South 8 km/h 9.7 km/h 86% 0 mm 0 W/m2
01:24 9.2 °C 7 °C 991.8 hPa SW 8 km/h 8 km/h 86% 0 mm 0 W/m2
01:30 9.4 °C 7.2 °C 991.8 hPa SE 8 km/h 8 km/h 86% 0 mm 0 W/m2
01:36 9.5 °C 7.1 °C 991.8 hPa South 8 km/h 8 km/h 85% 0 mm 0 W/m2
01:42 9.7 °C 7.3 °C 991.8 hPa SW 8 km/h 9.7 km/h 85% 0 mm 0 W/m2
01:48 9.9 °C 7.4 °C 991.8 hPa SW 8 km/h 9.7 km/h 84% 0 mm 0 W/m2
01:54 10.1 °C 7.6 °C 991.8 hPa South 8 km/h 9.7 km/h 84% 0 mm 0 W/m2
02:00 10.2 °C 7.6 °C 991.8 hPa SSW 9.7 km/h 9.7 km/h 84% 0 mm 0 W/m2
02:06 10.2 °C 7.6 °C 992.1 hPa SSW 9.7 km/h 11.3 km/h 84% 0 mm 0 W/m2
02:12 10.2 °C 7.4 °C 992.1 hPa South 8 km/h 9.7 km/h 83% 0 mm 0 W/m2
02:18 10.1 °C 7.3 °C 992.1 hPa South 6.4 km/h 9.7 km/h 83% 0 mm 0 W/m2
02:24 10 °C 7.4 °C 992.1 hPa South 4.8 km/h 6.4 km/h 84% 0 mm 0 W/m2
02:30 10.1 °C 7.6 °C 992.4 hPa SSW 4.8 km/h 4.8 km/h 84% 0 mm 0 W/m2
02:36 10.3 °C 7.7 °C 992.8 hPa SW 6.4 km/h 6.4 km/h 84% 0 mm 0 W/m2
02:42 10.4 °C 7.8 °C 992.8 hPa SW 3.2 km/h 11.3 km/h 84% 0 mm 0 W/m2
02:48 10.6 °C 7.8 °C 992.8 hPa SW 6.4 km/h 11.3 km/h 83% 0 mm 0 W/m2
02:54 10.7 °C 7.9 °C 992.8 hPa SW 8 km/h 8 km/h 83% 0 mm 0 W/m2
03:00 10.7 °C 7.9 °C 993.1 hPa SW 6.4 km/h 6.4 km/h 83% 0 mm 0 W/m2
03:06 10.8 °C 8 °C 993.1 hPa WSW 6.4 km/h 16.1 km/h 83% 0 mm 0 W/m2
03:12 11.2 °C 8 °C 993.1 hPa WSW 9.7 km/h 14.5 km/h 81% 0 mm 0 W/m2
03:18 11.3 °C 7.9 °C 993.1 hPa SW 9.7 km/h 14.5 km/h 80% 0 mm 0 W/m2
03:24 11.2 °C 7.7 °C 993.1 hPa West 8 km/h 9.7 km/h 79% 0 mm 0 W/m2
03:30 11.2 °C 7.5 °C 993.1 hPa West 9.7 km/h 9.7 km/h 78% 0 mm 0 W/m2
03:36 11.2 °C 7.5 °C 993.5 hPa SW 8 km/h 14.5 km/h 78% 0 mm 0 W/m2
03:42 11.1 °C 7.6 °C 993.5 hPa WSW 6.4 km/h 9.7 km/h 79% 0 mm 0 W/m2
03:48 11 °C 7.5 °C 993.8 hPa WSW 6.4 km/h 9.7 km/h 79% 0 mm 0 W/m2
03:54 11 °C 7.5 °C 993.8 hPa SW 6.4 km/h 16.1 km/h 79% 0 mm 0 W/m2
04:00 10.9 °C 7.4 °C 993.8 hPa SW 6.4 km/h 8 km/h 79% 0 mm 0 W/m2
04:02 10.9 °C 7.4 °C 994.1 hPa WSW 6.4 km/h 8 km/h 79% 0 mm 0 W/m2
04:08 10.8 °C 7.3 °C 994.1 hPa NW 6.4 km/h 8 km/h 79% 0 mm 0 W/m2
04:14 10.9 °C 7.1 °C 994.1 hPa WSW 8 km/h 20.9 km/h 77% 0 mm 0 W/m2
04:20 10.9 °C 6.9 °C 994.1 hPa West 9.7 km/h 9.7 km/h 76% 0 mm 0 W/m2
04:26 10.9 °C 6.8 °C 994.5 hPa WSW 9.7 km/h 9.7 km/h 76% 0 mm 0 W/m2
04:32 10.8 °C 6.7 °C 994.8 hPa West 8 km/h 11.3 km/h 76% 0 mm 0 W/m2
04:38 10.6 °C 6.6 °C 995.1 hPa West 6.4 km/h 11.3 km/h 76% 0 mm 0 W/m2
04:44 10.5 °C 6.6 °C 995.1 hPa WSW 4.8 km/h 6.4 km/h 77% 0 mm 0 W/m2
04:50 10.4 °C 6.6 °C 995.5 hPa WNW 6.4 km/h 8 km/h 77% 0 mm 0 W/m2
04:56 10.2 °C 6.4 °C 995.8 hPa West 6.4 km/h 8 km/h 77% 0 mm 0 W/m2
05:02 10 °C 6.3 °C 995.8 hPa WNW 4.8 km/h 24.1 km/h 78% 0 mm 0 W/m2
05:08 9.7 °C 6 °C 996.2 hPa West 9.7 km/h 24.1 km/h 78% 0 mm 0 W/m2
05:14 9.4 °C 5.7 °C 996.5 hPa WNW 9.7 km/h 12.9 km/h 78% 0 mm 0 W/m2
05:20 9.3 °C 5.6 °C 996.5 hPa NW 9.7 km/h 14.5 km/h 78% 0 mm 0 W/m2
05:26 9.1 °C 5.5 °C 996.8 hPa WNW 9.7 km/h 14.5 km/h 78% 0 mm 0 W/m2
05:32 8.8 °C 5.5 °C 997.2 hPa West 8 km/h 9.7 km/h 80% 0 mm 0 W/m2
05:38 8.2 °C 5.3 °C 997.5 hPa WNW 8 km/h 9.7 km/h 82% 0 mm 0 W/m2
05:44 7.9 °C 5.2 °C 997.9 hPa NW 8 km/h 8 km/h 83% 0 mm 0 W/m2
05:50 6.9 °C 4.2 °C 998.2 hPa NNW 8 km/h 8 km/h 83% 0 mm 0 W/m2
05:56 5.9 °C 3.7 °C 998.5 hPa NW 8 km/h 8 km/h 86% 0 mm 0 W/m2
06:02 5.3 °C 3.3 °C 998.5 hPa NW 6.4 km/h 6.4 km/h 87% 0 mm 0 W/m2
06:06 4.9 °C 3.1 °C 998.9 hPa NNW 6.4 km/h 9.7 km/h 88% 0 mm 0 W/m2
06:12 4.6 °C 2.8 °C 999.2 hPa NNW 9.7 km/h 16.1 km/h 88% 0 mm 0 W/m2
06:18 4.4 °C 2.7 °C 999.2 hPa North 8 km/h 16.1 km/h 89% 0 mm 0 W/m2
06:24 4.2 °C 2.6 °C 999.5 hPa NW 8 km/h 11.3 km/h 89% 0 mm 0 W/m2
06:30 4.1 °C 2.3 °C 999.9 hPa WNW 9.7 km/h 9.7 km/h 88% 0 mm 0 W/m2
06:36 4.1 °C 2.1 °C 999.9 hPa WNW 9.7 km/h 11.3 km/h 87% 0 mm 0 W/m2
06:42 4 °C 1.9 °C 1000.2 hPa North 8 km/h 19.3 km/h 86% 0 mm 0 W/m2
06:48 3.9 °C 1.5 °C 1000.6 hPa WNW 9.7 km/h 19.3 km/h 84% 0 mm 0 W/m2
06:54 3.9 °C 1.4 °C 1000.9 hPa NW 12.9 km/h 12.9 km/h 84% 0 mm 0 W/m2
07:00 3.8 °C 1.5 °C 1001.2 hPa West 11.3 km/h 11.3 km/h 85% 0 mm 0 W/m2
07:06 3.7 °C 1.6 °C 1001.6 hPa SSW 9.7 km/h 11.3 km/h 86% 0 mm 0 W/m2
07:12 3.7 °C 1.6 °C 1001.6 hPa WSW 8 km/h 9.7 km/h 86% 0 mm 0 W/m2
07:18 3.8 °C 1.5 °C 1001.9 hPa WNW 9.7 km/h 9.7 km/h 85% 0 mm 0 W/m2
07:24 3.8 °C 1.6 °C 1002.3 hPa WSW 6.4 km/h 9.7 km/h 85% 0 mm 0 W/m2
07:30 3.8 °C 1.6 °C 1002.3 hPa NNW 4.8 km/h 6.4 km/h 85% 0 mm 0 W/m2
07:36 3.9 °C 1.4 °C 1002.3 hPa West 4.8 km/h 6.4 km/h 84% 0 mm 0 W/m2
07:42 3.9 °C 1.5 °C 1002.6 hPa WNW 4.8 km/h 4.8 km/h 84% 0 mm 0 W/m2
07:48 3.9 °C 1.3 °C 1002.6 hPa WNW 4.8 km/h 6.4 km/h 83% 0 mm 0 W/m2
07:54 3.9 °C 1.3 °C 1002.6 hPa West 4.8 km/h 6.4 km/h 83% 0 mm 7 W/m2
08:00 4 °C 1.2 °C 1002.6 hPa WNW 4.8 km/h 4.8 km/h 82% 0 mm 7 W/m2
08:06 4.1 °C 1.1 °C 1002.6 hPa WNW 4.8 km/h 4.8 km/h 81% 0 mm 11 W/m2
08:12 4.1 °C 0.7 °C 1002.9 hPa WNW 4.8 km/h 11.3 km/h 79% 0 mm 12 W/m2
08:18 4.2 °C 0.5 °C 1002.9 hPa WNW 8 km/h 12.9 km/h 77% 0 mm 12 W/m2
08:24 4.1 °C 0.3 °C 1003.3 hPa NW 8 km/h 17.7 km/h 76% 0 mm 7 W/m2
08:30 3.9 °C -0.1 °C 1003.6 hPa WNW 11.3 km/h 11.3 km/h 75% 0 mm 11 W/m2
08:36 3.7 °C -0.6 °C 1003.9 hPa NW 11.3 km/h 14.5 km/h 74% 0 mm 23 W/m2
08:42 3.6 °C -0.6 °C 1003.9 hPa West 11.3 km/h 11.3 km/h 74% 0 mm 56 W/m2
08:48 3.6 °C -0.8 °C 1004.3 hPa West 12.9 km/h 16.1 km/h 73% 0 mm 76 W/m2
08:54 3.6 °C -0.6 °C 1004.3 hPa WNW 12.9 km/h 12.9 km/h 74% 0 mm 141 W/m2
09:00 3.6 °C -0.8 °C 1004.3 hPa WNW 12.9 km/h 12.9 km/h 73% 0 mm 151 W/m2
09:06 3.7 °C -0.6 °C 1004.3 hPa West 11.3 km/h 14.5 km/h 74% 0 mm 169 W/m2
09:12 3.7 °C -0.3 °C 1004.6 hPa WNW 9.7 km/h 16.1 km/h 75% 0 mm 165 W/m2
09:18 3.7 °C -0.2 °C 1004.6 hPa West 8 km/h 16.1 km/h 76% 0 mm 109 W/m2
09:24 3.3 °C -0.7 °C 1005.3 hPa NW 8 km/h 11.3 km/h 75% 0 mm 97 W/m2
09:30 2.9 °C -1.1 °C 1005.3 hPa West 9.7 km/h 17.7 km/h 75% 0 mm 84 W/m2
09:36 2.8 °C -1.4 °C 1005.3 hPa WNW 11.3 km/h 17.7 km/h 74% 0 mm 65 W/m2
09:42 2.6 °C -1.4 °C 1005.3 hPa NW 9.7 km/h 14.5 km/h 75% 0 mm 53 W/m2
09:48 2.4 °C -1.4 °C 1005.3 hPa NW 9.7 km/h 14.5 km/h 76% 0 mm 84 W/m2
09:54 2.4 °C -1.2 °C 1005.3 hPa WNW 8 km/h 14.5 km/h 77% 0 mm 141 W/m2
10:00 2.4 °C -1.4 °C 1005.3 hPa NW 8 km/h 8 km/h 76% 0 mm 102 W/m2
10:06 2.3 °C -1.7 °C 1005.3 hPa WNW 6.4 km/h 8 km/h 75% 0 mm 144 W/m2
10:12 2.3 °C -1.9 °C 1006 hPa WNW 8 km/h 8 km/h 74% 0 mm 156 W/m2
10:18 2.3 °C -2 °C 1006 hPa WNW 6.4 km/h 8 km/h 73% 0 mm 167 W/m2
10:24 2.4 °C -1.8 °C 1006.3 hPa West 6.4 km/h 9.7 km/h 74% 0 mm 149 W/m2
10:30 2.3 °C -2.4 °C 1006.3 hPa WNW 8 km/h 9.7 km/h 71% 0 mm 190 W/m2
10:36 2.2 °C -2.4 °C 1006.7 hPa WNW 9.7 km/h 9.7 km/h 72% 0 mm 213 W/m2
10:42 2.2 °C -2.3 °C 1006.7 hPa West 6.4 km/h 9.7 km/h 72% 0 mm 165 W/m2
10:48 2.1 °C -2.8 °C 1007 hPa WNW 8 km/h 9.7 km/h 70% 0 mm 236 W/m2
10:54 2.3 °C -2.4 °C 1007 hPa West 8 km/h 9.7 km/h 71% 0 mm 230 W/m2
11:00 2.4 °C -2.7 °C 1007 hPa West 8 km/h 9.7 km/h 69% 0 mm 258 W/m2
11:06 2.7 °C -2.2 °C 1007 hPa NW 6.4 km/h 11.3 km/h 70% 0 mm 209 W/m2
11:12 2.4 °C -2.9 °C 1007.3 hPa WNW 8 km/h 11.3 km/h 68% 0 mm 265 W/m2
11:18 2.3 °C -3 °C 1007.3 hPa West 8 km/h 14.5 km/h 68% 0 mm 167 W/m2
11:24 2.2 °C -2.9 °C 1007.3 hPa West 6.4 km/h 8 km/h 69% 0 mm 141 W/m2
11:30 2.1 °C -3 °C 1007.3 hPa WNW 6.4 km/h 6.4 km/h 69% 0 mm 204 W/m2
11:36 2.1 °C -3.2 °C 1007.3 hPa WNW 8 km/h 8 km/h 68% 0 mm 116 W/m2
11:42 2.1 °C -3 °C 1007.3 hPa WSW 8 km/h 8 km/h 69% 0 mm 146 W/m2
11:48 2.1 °C -2.8 °C 1007.3 hPa WNW 6.4 km/h 9.7 km/h 70% 0 mm 97 W/m2
11:54 2.1 °C -2.8 °C 1007.3 hPa West 6.4 km/h 6.4 km/h 70% 0 mm 121 W/m2
12:00 2.1 °C -2.8 °C 1007.3 hPa WNW 4.8 km/h 4.8 km/h 70% 0 mm 172 W/m2
12:06 2.2 °C -2.9 °C 1007.3 hPa NW 6.4 km/h 8 km/h 69% 0 mm 192 W/m2
12:12 2.2 °C -3.1 °C 1008 hPa West 8 km/h 8 km/h 68% 0 mm 181 W/m2
12:18 2.3 °C -3.2 °C 1008 hPa WNW 6.4 km/h 14.5 km/h 67% 0 mm 148 W/m2
12:24 2.1 °C -3.4 °C 1008 hPa WNW 8 km/h 11.3 km/h 67% 0 mm 146 W/m2
12:30 2.2 °C -3.1 °C 1007.7 hPa WNW 8 km/h 8 km/h 68% 0 mm 216 W/m2
12:36 2.2 °C -3.1 °C 1007.7 hPa West 6.4 km/h 8 km/h 68% 0 mm 174 W/m2
12:42 2.1 °C -3.4 °C 1008 hPa NW 6.4 km/h 11.3 km/h 67% 0 mm 156 W/m2
12:48 2.1 °C -3.4 °C 1008 hPa West 6.4 km/h 14.5 km/h 67% 0 mm 186 W/m2
12:54 1.9 °C -3.7 °C 1008 hPa WNW 6.4 km/h 14.5 km/h 66% 0 mm 178 W/m2
13:00 2 °C -3.7 °C 1008 hPa WNW 8 km/h 8 km/h 66% 0 mm 258 W/m2
13:06 2.3 °C -3 °C 1008 hPa NW 6.4 km/h 8 km/h 68% 0 mm 290 W/m2
13:12 2.6 °C -3.5 °C 1007.7 hPa WNW 6.4 km/h 9.7 km/h 64% 0 mm 302 W/m2
13:18 2.7 °C -3.4 °C 1008 hPa WNW 8 km/h 9.7 km/h 64% 0 mm 158 W/m2
13:24 2.4 °C -3.5 °C 1008 hPa WNW 6.4 km/h 9.7 km/h 65% 0 mm 156 W/m2
13:30 2.3 °C -3.4 °C 1008 hPa WNW 4.8 km/h 8 km/h 66% 0 mm 178 W/m2
13:36 2 °C -3.3 °C 1008 hPa West 6.4 km/h 12.9 km/h 68% 0 mm 153 W/m2
13:42 1.7 °C -3.4 °C 1008 hPa WNW 8 km/h 11.3 km/h 69% 0 mm 218 W/m2
13:48 1.7 °C -3.2 °C 1008 hPa NW 8 km/h 11.3 km/h 70% 0 mm 202 W/m2
13:54 1.6 °C -3.3 °C 1008 hPa WSW 8 km/h 8 km/h 70% 0 mm 220 W/m2
14:00 1.6 °C -3.5 °C 1008 hPa West 6.4 km/h 8 km/h 69% 0 mm 250 W/m2
14:08 1.6 °C -3.3 °C 1008 hPa NW 8 km/h 8 km/h 70% 0 mm 218 W/m2
14:14 1.3 °C -4 °C 1008 hPa NNW 8 km/h 16.1 km/h 68% 0 mm 165 W/m2
14:20 1 °C -4.1 °C 1008 hPa NW 8 km/h 8 km/h 69% 0 mm 172 W/m2
14:26 1 °C -3.7 °C 1008 hPa WNW 6.4 km/h 11.3 km/h 71% 0 mm 176 W/m2
14:32 0.9 °C -4.1 °C 1008.4 hPa WNW 8 km/h 14.5 km/h 69% 0 mm 158 W/m2
14:38 0.9 °C -3.9 °C 1008.4 hPa WNW 8 km/h 14.5 km/h 70% 0 mm 160 W/m2
14:44 0.9 °C -4.2 °C 1008.4 hPa West 8 km/h 8 km/h 69% 0 mm 250 W/m2
14:50 1.2 °C -3.9 °C 1008 hPa NW 6.4 km/h 6.4 km/h 69% 0 mm 399 W/m2
14:56 1.2 °C -4.5 °C 1008.4 hPa WNW 8 km/h 9.7 km/h 66% 0 mm 265 W/m2
15:02 1 °C -4.2 °C 1008.4 hPa West 9.7 km/h 9.7 km/h 68% 0 mm 185 W/m2
15:08 0.8 °C -4.2 °C 1008.4 hPa NW 8 km/h 11.3 km/h 69% 0 mm 172 W/m2
15:14 0.7 °C -4.8 °C 1008.4 hPa NNW 8 km/h 9.7 km/h 67% 0 mm 139 W/m2
15:20 0.4 °C -4.8 °C 1009 hPa WNW 8 km/h 8 km/h 68% 0 mm 132 W/m2
15:26 0.4 °C -4.8 °C 1009 hPa WNW 8 km/h 8 km/h 68% 0 mm 102 W/m2
15:32 0.4 °C -4.8 °C 1008.4 hPa NNW 8 km/h 8 km/h 68% 0 mm 132 W/m2
15:38 0.5 °C -4.6 °C 1008.4 hPa NW 4.8 km/h 8 km/h 69% 0 mm 83 W/m2
15:44 0.5 °C -4.7 °C 1008.4 hPa NNE 3.2 km/h 6.4 km/h 68% 0 mm 132 W/m2
15:50 0.5 °C -4.7 °C 1008.7 hPa NNW 6.4 km/h 6.4 km/h 68% 0 mm 83 W/m2
15:56 0.4 °C -5 °C 1008.7 hPa NW 6.4 km/h 8 km/h 67% 0 mm 76 W/m2
16:02 0.3 °C -5.1 °C 1009 hPa NW 6.4 km/h 6.4 km/h 67% 0 mm 49 W/m2
16:08 0.3 °C -4.9 °C 1009 hPa NNW 4.8 km/h 6.4 km/h 68% 0 mm 39 W/m2
16:14 0.2 °C -4.8 °C 1009 hPa NW 6.4 km/h 8 km/h 69% 0 mm 42 W/m2
16:20 0.1 °C -4.9 °C 1009 hPa NNW 6.4 km/h 6.4 km/h 69% 0 mm 35 W/m2
16:26 -0.1 °C -4.9 °C 1009 hPa West 6.4 km/h 9.7 km/h 70% 0 mm 26 W/m2
16:32 -0.3 °C -4.9 °C 1009 hPa NNW 6.4 km/h 6.4 km/h 71% 0 mm 18 W/m2
16:38 -0.4 °C -5 °C 1009.4 hPa NW 6.4 km/h 6.4 km/h 71% 0 mm 32 W/m2
16:44 -0.4 °C -5.1 °C 1009.4 hPa NNW 4.8 km/h 6.4 km/h 71% 0 mm 11 W/m2
16:50 -0.6 °C -5.2 °C 1009.4 hPa WNW 4.8 km/h 4.8 km/h 71% 0 mm 7 W/m2
16:56 -0.6 °C -4.8 °C 1009.4 hPa NW 4.8 km/h 4.8 km/h 73% 0 mm 0 W/m2
17:02 -0.7 °C -5.2 °C 1009.4 hPa WNW 4.8 km/h 8 km/h 72% 0 mm 0 W/m2
17:08 -0.8 °C -5 °C 1009.4 hPa NW 4.8 km/h 11.3 km/h 73% 0 mm 0 W/m2
17:14 -0.8 °C -5.1 °C 1009.4 hPa North 3.2 km/h 4.8 km/h 73% 0 mm 0 W/m2
17:20 -0.9 °C -5.1 °C 1009.7 hPa WNW 4.8 km/h 4.8 km/h 73% 0 mm 0 W/m2
17:26 -1 °C -5.2 °C 1009.7 hPa NW 6.4 km/h 8 km/h 73% 0 mm 0 W/m2
17:32 -1.1 °C -5.4 °C 1009.7 hPa WNW 4.8 km/h 6.4 km/h 72% 0 mm 0 W/m2
17:38 -1.1 °C -5.5 °C 1009.4 hPa NW 4.8 km/h 6.4 km/h 72% 0 mm 0 W/m2
17:44 -1.2 °C -5.6 °C 1009.7 hPa NNW 4.8 km/h 4.8 km/h 72% 0 mm 0 W/m2
17:50 -1.2 °C -5.6 °C 1009.7 hPa WNW 3.2 km/h 4.8 km/h 72% 0 mm 0 W/m2
17:56 -1.2 °C -5.6 °C 1010 hPa NW 4.8 km/h 8 km/h 72% 0 mm 0 W/m2
18:02 -1.3 °C -5.7 °C 1010 hPa NNW 3.2 km/h 9.7 km/h 72% 0 mm 0 W/m2
18:08 -1.3 °C -5.7 °C 1010 hPa NW 3.2 km/h 9.7 km/h 72% 0 mm 0 W/m2
18:14 -1.4 °C -5.6 °C 1010 hPa NW 1.6 km/h 3.2 km/h 73% 0 mm 0 W/m2
18:20 -1.4 °C -5.8 °C 1010 hPa NW 1.6 km/h 4.8 km/h 72% 0 mm 0 W/m2
18:26 -1.4 °C -5.8 °C 1010 hPa NW 3.2 km/h 4.8 km/h 72% 0 mm 0 W/m2
18:32 -1.4 °C -6 °C 1010 hPa NNW 3.2 km/h 4.8 km/h 71% 0 mm 0 W/m2
18:38 -1.4 °C -6 °C 1010 hPa WNW 4.8 km/h 11.3 km/h 71% 0 mm 0 W/m2
18:44 -1.4 °C -5.8 °C 1010 hPa WNW 3.2 km/h 8 km/h 72% 0 mm 0 W/m2
18:50 -1.4 °C -5.8 °C 1010 hPa WNW 3.2 km/h 3.2 km/h 72% 0 mm 0 W/m2
18:56 -1.5 °C -6.1 °C 1010 hPa NNW 1.6 km/h 6.4 km/h 71% 0 mm 0 W/m2
19:02 -1.5 °C -6.1 °C 1010 hPa NNW 3.2 km/h 6.4 km/h 71% 0 mm 0 W/m2
19:08 -1.6 °C -6.3 °C 1010 hPa WNW 3.2 km/h 6.4 km/h 70% 0 mm 0 W/m2
19:14 -1.6 °C -6.6 °C 1010 hPa NNW 3.2 km/h 4.8 km/h 69% 0 mm 0 W/m2
19:20 -1.7 °C -6.4 °C 1010 hPa NNE 4.8 km/h 6.4 km/h 70% 0 mm 0 W/m2
19:26 -1.7 °C -6.6 °C 1010.4 hPa NNW 3.2 km/h 6.4 km/h 69% 0 mm 0 W/m2
19:32 -1.7 °C -6.8 °C 1010 hPa NW 3.2 km/h 4.8 km/h 68% 0 mm 0 W/m2
19:38 -1.7 °C -6.8 °C 1010 hPa NW 3.2 km/h 4.8 km/h 68% 0 mm 0 W/m2
19:44 -1.8 °C -6.7 °C 1010 hPa NW 3.2 km/h 8 km/h 69% 0 mm 0 W/m2
19:50 -1.8 °C -6.8 °C 1010 hPa NNW 4.8 km/h 11.3 km/h 69% 0 mm 0 W/m2
19:56 -1.9 °C -6.8 °C 1010 hPa NW 4.8 km/h 11.3 km/h 69% 0 mm 0 W/m2
20:02 -1.9 °C -7.1 °C 1010 hPa NW 4.8 km/h 6.4 km/h 68% 0 mm 0 W/m2
20:08 -2 °C -7.1 °C 1010.4 hPa NW 4.8 km/h 6.4 km/h 68% 0 mm 0 W/m2
20:14 -2 °C -7.1 °C 1010.4 hPa NW 3.2 km/h 3.2 km/h 68% 0 mm 0 W/m2
20:20 -2.1 °C -7 °C 1010 hPa NNW 3.2 km/h 4.8 km/h 69% 0 mm 0 W/m2
20:26 -2.1 °C -7.2 °C 1010.4 hPa NW 3.2 km/h 6.4 km/h 68% 0 mm 0 W/m2
20:32 -2.1 °C -7.2 °C 1010.4 hPa NW 1.6 km/h 3.2 km/h 68% 0 mm 0 W/m2
20:38 -2.1 °C -7.2 °C 1010.4 hPa NW 1.6 km/h 4.8 km/h 68% 0 mm 0 W/m2
20:44 -2.1 °C -7.2 °C 1010.4 hPa NW 3.2 km/h 4.8 km/h 68% 0 mm 0 W/m2
20:50 -2.1 °C -7.4 °C 1010 hPa NW 3.2 km/h 3.2 km/h 67% 0 mm 0 W/m2
20:56 -2.2 °C -7.5 °C 1010 hPa NW 1.6 km/h 3.2 km/h 67% 0 mm 0 W/m2
21:02 -2.2 °C -7.7 °C 1010 hPa North 3.2 km/h 4.8 km/h 66% 0 mm 0 W/m2
21:08 -2.3 °C -7.8 °C 1010 hPa NNE 4.8 km/h 4.8 km/h 66% 0 mm 0 W/m2
21:14 -2.3 °C -8 °C 1010.4 hPa North 4.8 km/h 4.8 km/h 65% 0 mm 0 W/m2
21:20 -2.3 °C -8 °C 1010 hPa North 3.2 km/h 3.2 km/h 65% 0 mm 0 W/m2
21:26 -2.3 °C -8 °C 1010 hPa NNW 3.2 km/h 4.8 km/h 65% 0 mm 0 W/m2
21:32 -2.3 °C -7.8 °C 1010 hPa NNW 3.2 km/h 3.2 km/h 66% 0 mm 0 W/m2
21:38 -2.3 °C -8 °C 1009.7 hPa NW 3.2 km/h 3.2 km/h 65% 0 mm 0 W/m2
21:44 -2.4 °C -8.3 °C 1009.7 hPa NNW 3.2 km/h 8 km/h 64% 0 mm 0 W/m2
21:50 -2.4 °C -8.3 °C 1009.7 hPa NW 4.8 km/h 4.8 km/h 64% 0 mm 0 W/m2
21:56 -2.4 °C -8.1 °C 1009.7 hPa NW 3.2 km/h 4.8 km/h 65% 0 mm 0 W/m2
22:02 -2.4 °C -8.1 °C 1009.7 hPa NW 1.6 km/h 3.2 km/h 65% 0 mm 0 W/m2
22:08 -2.4 °C -8.1 °C 1009.7 hPa NW 1.6 km/h 3.2 km/h 65% 0 mm 0 W/m2
22:14 -2.4 °C -7.9 °C 1009.7 hPa NW 1.6 km/h 1.6 km/h 66% 0 mm 0 W/m2
22:20 -2.5 °C -8.2 °C 1009.7 hPa NNW 3.2 km/h 6.4 km/h 65% 0 mm 0 W/m2
22:26 -2.5 °C -8.2 °C 1009.7 hPa North 4.8 km/h 6.4 km/h 65% 0 mm 0 W/m2
22:32 -2.5 °C -8.2 °C 1009.7 hPa North 4.8 km/h 6.4 km/h 65% 0 mm 0 W/m2
22:38 -2.5 °C -8.2 °C 1009.7 hPa North 4.8 km/h 6.4 km/h 65% 0 mm 0 W/m2
22:44 -2.6 °C -7.8 °C 1009.7 hPa NW 4.8 km/h 6.4 km/h 67% 0 mm 0 W/m2
22:50 -2.5 °C -8 °C 1010 hPa NW 4.8 km/h 6.4 km/h 66% 0 mm 0 W/m2
22:56 -2.6 °C -8.1 °C 1009.7 hPa North 6.4 km/h 8 km/h 66% 0 mm 0 W/m2
23:02 -2.6 °C -7.9 °C 1009.7 hPa North 4.8 km/h 6.4 km/h 67% 0 mm 0 W/m2
23:08 -2.7 °C -7.9 °C 1009.7 hPa NW 4.8 km/h 6.4 km/h 67% 0 mm 0 W/m2
23:14 -2.7 °C -8.2 °C 1009.7 hPa NNW 6.4 km/h 9.7 km/h 66% 0 mm 0 W/m2
23:20 -2.8 °C -8.3 °C 1009.7 hPa NNW 8 km/h 8 km/h 66% 0 mm 0 W/m2
23:26 -2.8 °C -8.3 °C 1009.7 hPa NNE 6.4 km/h 12.9 km/h 66% 0 mm 0 W/m2
23:32 -2.9 °C -8.2 °C 1009.4 hPa NNW 6.4 km/h 6.4 km/h 67% 0 mm 0 W/m2
23:38 -2.9 °C -8.2 °C 1009.4 hPa North 4.8 km/h 6.4 km/h 67% 0 mm 0 W/m2
23:44 -3.1 °C -8.3 °C 1009 hPa NW 6.4 km/h 11.3 km/h 67% 0 mm 0 W/m2
23:50 -3.1 °C -8.4 °C 1009 hPa North 8 km/h 8 km/h 67% 0 mm 0 W/m2
23:56 -3.1 °C -8.2 °C 1009.4 hPa NW 6.4 km/h 8 km/h 68% 0 mm 0 W/m2
Country Meadow, Clay, NY, USA
Compliments of Weather Underground - 2 mb